Time;durP1;ratioP1;P1;durP2;ratioP2;P2;SDS_P1;SDS_P2;PMS_P1;PMS_P2;Temp;Humidity;BMP_temperature;BMP_pressure;BME280_temperature;BME280_humidity;BME280_pressure;Samples;Min_cycle;Max_cycle;Signal;HPM_P1;HPM_P2
2023/02/11 00:01:59;;;;;;;34.88;23.15;;;;;;;;;;10022119;28;20518;-80
2023/02/11 00:06:53;;;;;;;35.10;23.38;;;;;;;;;;10025291;28;20045;-81
2023/02/11 00:11:47;;;;;;;30.73;20.58;;;;;;;;;;10029892;28;20490;-80
2023/02/11 00:16:41;;;;;;;35.58;22.42;;;;;;;;;;10030807;28;20461;-80
2023/02/11 00:21:35;;;;;;;38.60;24.80;;;;;;;;;;10027541;28;20529;-80
2023/02/11 00:26:31;;;;;;;33.30;23.98;;;;;;;;;;10030525;28;20136;-81
2023/02/11 00:31:25;;;;;;;39.55;27.15;;;;;;;;;;10030525;28;20466;-81
2023/02/11 00:36:24;;;;;;;33.28;25.27;;;;;;;;;;10027159;28;20434;-81
2023/02/11 00:41:19;;;;;;;34.40;23.65;;;;;;;;;;10029244;28;20058;-81
2023/02/11 00:46:12;;;;;;;36.30;22.30;;;;;;;;;;10030196;28;20141;-81
2023/02/11 00:51:06;;;;;;;31.40;20.85;;;;;;;;;;10028222;28;20137;-80
2023/02/11 00:56:00;;;;;;;30.38;20.33;;;;;;;;;;10027742;28;20076;-80
2023/02/11 01:00:53;;;;;;;23.98;18.13;;;;;;;;;;10029073;28;20053;-80
2023/02/11 01:05:47;;;;;;;24.98;18.63;;;;;;;;;;10026919;28;20080;-80
2023/02/11 01:10:40;;;;;;;29.83;20.23;;;;;;;;;;10027848;28;20084;-80
2023/02/11 01:15:34;;;;;;;25.02;18.40;;;;;;;;;;10028676;28;20046;-80
2023/02/11 01:20:30;;;;;;;22.27;18.02;;;;;;;;;;10028860;28;20053;-76
2023/02/11 01:25:23;;;;;;;22.73;15.90;;;;;;;;;;10026610;28;20406;-81
2023/02/11 01:30:16;;;;;;;27.77;16.67;;;;;;;;;;10028966;28;20050;-80
2023/02/11 01:35:11;;;;;;;24.85;16.95;;;;;;;;;;10026575;28;20081;-80
2023/02/11 01:40:10;;;;;;;21.92;15.80;;;;;;;;;;10027596;28;20045;-80
2023/02/11 01:45:41;;;;;;;22.27;16.70;;;;;;;;;;10026134;28;20053;-80
2023/02/11 01:50:36;;;;;;;23.25;17.58;;;;;;;;;;10023350;28;20521;-80
2023/02/11 02:00:41;;;;;;;21.75;16.85;;;;;;;;;;10026065;28;20050;-80
2023/02/11 02:05:50;;;;;;;20.77;15.57;;;;;;;;;;10026188;28;20091;-79
2023/02/11 02:10:47;;;;;;;21.33;15.90;;;;;;;;;;10009603;28;20165;-79
2023/02/11 02:15:46;;;;;;;21.80;15.80;;;;;;;;;;10026667;28;20057;-80
2023/02/11 02:20:59;;;;;;;23.63;17.00;;;;;;;;;;10027034;28;20054;-76
2023/02/11 02:26:11;;;;;;;25.30;16.67;;;;;;;;;;10018746;28;20569;-76
2023/02/11 02:31:52;;;;;;;29.20;14.68;;;;;;;;;;10026409;28;20499;-76
2023/02/11 02:37:07;;;;;;;;;;;;;;;;;;9971346;28;20430;-75
2023/02/11 02:42:01;;;;;;;20.60;14.80;;;;;;;;;;10016202;28;19976;-75
2023/02/11 02:46:54;;;;;;;18.45;13.43;;;;;;;;;;10013704;28;20062;-75
2023/02/11 02:52:02;;;;;;;22.25;16.83;;;;;;;;;;10053261;28;20091;-75
2023/02/11 02:57:07;;;;;;;21.55;14.45;;;;;;;;;;10044333;28;20128;-76
2023/02/11 03:02:21;;;;;;;16.48;11.55;;;;;;;;;;10025551;28;20054;-75
2023/02/11 03:07:40;;;;;;;18.40;12.32;;;;;;;;;;10025793;28;20050;-75
2023/02/11 03:12:35;;;;;;;17.33;13.27;;;;;;;;;;10024186;28;20045;-75
2023/02/11 03:17:28;;;;;;;24.30;12.90;;;;;;;;;;10025664;28;20076;-77
2023/02/11 03:22:27;;;;;;;25.75;14.30;;;;;;;;;;10021883;28;20057;-76
2023/02/11 03:27:52;;;;;;;14.80;11.07;;;;;;;;;;10021138;28;20056;-77
2023/02/11 03:33:05;;;;;;;16.45;12.70;;;;;;;;;;10020536;28;20304;-77
2023/02/11 03:38:05;;;;;;;17.35;12.48;;;;;;;;;;10022603;28;20457;-76
2023/02/11 03:43:02;;;;;;;17.88;13.05;;;;;;;;;;10028676;28;20081;-77
2023/02/11 03:47:59;;;;;;;19.83;14.63;;;;;;;;;;10030414;28;20064;-76
2023/02/11 03:52:53;;;;;;;21.67;13.00;;;;;;;;;;10045913;28;20045;-75
2023/02/11 03:57:47;;;;;;;20.10;12.85;;;;;;;;;;10031935;28;20410;-74
2023/02/11 04:02:40;;;;;;;19.85;13.07;;;;;;;;;;10032337;28;20050;-75
2023/02/11 04:07:33;;;;;;;12.13;10.50;;;;;;;;;;10031424;28;20112;-76
2023/02/11 04:12:26;;;;;;;15.68;12.10;;;;;;;;;;10031015;28;20042;-75
2023/02/11 04:17:20;;;;;;;20.25;12.05;;;;;;;;;;10024790;28;20085;-76
2023/02/11 04:22:13;;;;;;;16.17;11.70;;;;;;;;;;10030874;28;20128;-77
2023/02/11 04:27:07;;;;;;;19.23;10.68;;;;;;;;;;10031261;28;20040;-77
2023/02/11 04:32:01;;;;;;;15.02;11.20;;;;;;;;;;10031064;28;20062;-77
2023/02/11 04:36:54;;;;;;;12.77;11.05;;;;;;;;;;10028541;28;20080;-77
2023/02/11 04:41:48;;;;;;;18.05;10.60;;;;;;;;;;10029917;28;20046;-77
2023/02/11 04:46:40;;;;;;;14.45;10.43;;;;;;;;;;10015964;28;20038;-77
2023/02/11 04:51:34;;;;;;;11.30;8.98;;;;;;;;;;10029232;28;20075;-77
2023/02/11 04:56:27;;;;;;;14.02;10.70;;;;;;;;;;10029203;28;20050;-76
2023/02/11 05:01:21;;;;;;;13.80;9.80;;;;;;;;;;10020946;28;20065;-77
2023/02/11 05:06:14;;;;;;;16.05;9.60;;;;;;;;;;10027115;28;20053;-77
2023/02/11 05:11:07;;;;;;;16.50;10.85;;;;;;;;;;10029169;28;20052;-76
2023/02/11 05:16:01;;;;;;;11.60;9.70;;;;;;;;;;10028902;28;20046;-77
2023/02/11 05:20:54;;;;;;;11.02;9.68;;;;;;;;;;10029099;28;20050;-77
2023/02/11 05:25:47;;;;;;;11.98;10.07;;;;;;;;;;10027295;28;20088;-77
2023/02/11 05:30:40;;;;;;;17.25;11.23;;;;;;;;;;10028764;28;20485;-77
2023/02/11 05:35:34;;;;;;;16.08;9.95;;;;;;;;;;10028001;28;20056;-76
2023/02/11 05:40:27;;;;;;;12.77;10.45;;;;;;;;;;10018968;28;20129;-77
2023/02/11 05:45:21;;;;;;;14.45;10.00;;;;;;;;;;10027670;28;20542;-77
2023/02/11 05:50:15;;;;;;;12.88;11.02;;;;;;;;;;10018473;28;20092;-76
2023/02/11 05:55:08;;;;;;;15.63;10.52;;;;;;;;;;9998223;28;20058;-77
2023/02/11 06:00:01;;;;;;;16.13;10.90;;;;;;;;;;9998722;28;20054;-79
2023/02/11 06:05:04;;;;;;;16.67;11.52;;;;;;;;;;9987995;28;20084;-77
2023/02/11 06:09:58;;;;;;;18.60;12.90;;;;;;;;;;9996903;28;20064;-76
2023/02/11 06:14:51;;;;;;;15.27;10.18;;;;;;;;;;10001223;28;20066;-76
2023/02/11 06:19:45;;;;;;;16.33;10.98;;;;;;;;;;10002780;28;20053;-78
2023/02/11 06:24:38;;;;;;;10.95;9.23;;;;;;;;;;10012877;28;20495;-79
2023/02/11 06:29:53;;;;;;;13.18;8.93;;;;;;;;;;10002213;28;20442;-79
2023/02/11 06:34:47;;;;;;;12.85;9.50;;;;;;;;;;9992843;28;20061;-80
2023/02/11 06:39:40;;;;;;;13.57;9.85;;;;;;;;;;10017527;28;20105;-79
2023/02/11 06:44:34;;;;;;;12.85;9.20;;;;;;;;;;9992295;28;20077;-78
2023/02/11 06:49:28;;;;;;;20.65;14.25;;;;;;;;;;9992831;28;20054;-78
2023/02/11 06:54:21;;;;;;;18.45;11.98;;;;;;;;;;9997220;28;20493;-75
2023/02/11 06:59:21;;;;;;;21.38;15.45;;;;;;;;;;9992997;28;20046;-75
2023/02/11 07:04:14;;;;;;;20.88;14.77;;;;;;;;;;10016620;28;20072;-74
2023/02/11 07:09:08;;;;;;;17.70;12.82;;;;;;;;;;10026409;28;20052;-75
2023/02/11 07:14:07;;;;;;;19.48;13.40;;;;;;;;;;10020219;28;20054;-73
2023/02/11 07:19:00;;;;;;;14.37;11.57;;;;;;;;;;10012241;28;20137;-75
2023/02/11 07:23:54;;;;;;;12.13;8.48;;;;;;;;;;10018130;28;20042;-73
2023/02/11 07:28:48;;;;;;;15.80;9.73;;;;;;;;;;10011348;28;20042;-72
2023/02/11 07:33:42;;;;;;;17.35;11.38;;;;;;;;;;9995473;28;20053;-72
2023/02/11 07:38:36;;;;;;;12.30;10.45;;;;;;;;;;10018667;28;20066;-71
2023/02/11 07:43:30;;;;;;;11.93;9.95;;;;;;;;;;10019742;28;20081;-73
2023/02/11 07:48:24;;;;;;;15.15;10.75;;;;;;;;;;10005501;28;20108;-72
2023/02/11 07:53:17;;;;;;;11.57;9.32;;;;;;;;;;10001197;28;20061;-72
2023/02/11 07:58:10;;;;;;;15.32;10.13;;;;;;;;;;10019776;28;20525;-72
2023/02/11 08:03:04;;;;;;;16.33;13.35;;;;;;;;;;10008953;28;20104;-72
2023/02/11 08:07:57;;;;;;;22.23;14.00;;;;;;;;;;10008854;28;20046;-73
2023/02/11 08:12:50;;;;;;;18.42;12.68;;;;;;;;;;10011142;28;20049;-73
2023/02/11 08:17:43;;;;;;;17.13;13.18;;;;;;;;;;10012211;28;20056;-78
2023/02/11 08:22:37;;;;;;;15.77;12.45;;;;;;;;;;10017100;28;20077;-74
2023/02/11 08:27:31;;;;;;;16.20;11.15;;;;;;;;;;10018085;28;20057;-79
2023/02/11 08:32:25;;;;;;;22.02;14.52;;;;;;;;;;10008856;28;20050;-75
2023/02/11 08:37:19;;;;;;;20.13;13.00;;;;;;;;;;10015798;28;20157;-73
2023/02/11 08:42:14;;;;;;;22.77;15.80;;;;;;;;;;10013023;28;20130;-71
2023/02/11 08:47:07;;;;;;;16.27;13.25;;;;;;;;;;10013785;28;20054;-72
2023/02/11 08:52:03;;;;;;;21.13;13.68;;;;;;;;;;10012381;28;20049;-70
2023/02/11 08:56:58;;;;;;;24.35;17.13;;;;;;;;;;10017438;28;20054;-71
2023/02/11 09:01:52;;;;;;;22.55;15.75;;;;;;;;;;10024567;28;20121;-72
2023/02/11 09:06:45;;;;;;;28.00;19.17;;;;;;;;;;10028478;28;20557;-72
2023/02/11 09:11:39;;;;;;;36.70;24.30;;;;;;;;;;10028045;28;20040;-72
2023/02/11 09:16:35;;;;;;;43.00;29.77;;;;;;;;;;10029208;28;20058;-72
2023/02/11 09:21:29;;;;;;;49.78;31.20;;;;;;;;;;10028133;28;20049;-72
2023/02/11 09:26:25;;;;;;;44.88;30.20;;;;;;;;;;10023630;28;20046;-71
2023/02/11 09:31:23;;;;;;;43.50;28.60;;;;;;;;;;10025386;28;20056;-71
2023/02/11 09:36:20;;;;;;;27.05;20.15;;;;;;;;;;10015813;28;20060;-71
2023/02/11 09:41:22;;;;;;;36.55;25.98;;;;;;;;;;10027791;28;20068;-72
2023/02/11 09:46:17;;;;;;;39.17;29.45;;;;;;;;;;10024572;28;20091;-72
2023/02/11 09:51:22;;;;;;;29.70;23.10;;;;;;;;;;10020237;28;20130;-72
2023/02/11 09:56:15;;;;;;;31.65;21.50;;;;;;;;;;10023951;28;20042;-72
2023/02/11 10:01:33;;;;;;;34.10;24.73;;;;;;;;;;10027524;28;20038;-72
2023/02/11 10:06:48;;;;;;;29.33;21.98;;;;;;;;;;10027446;28;20053;-72
2023/02/11 10:12:07;;;;;;;25.08;19.50;;;;;;;;;;10026424;28;20094;-72
2023/02/11 10:17:37;;;;;;;24.02;20.27;;;;;;;;;;10027979;28;20046;-71
2023/02/11 10:22:32;;;;;;;;;;;;;;;;;;10020139;28;20034;-71
2023/02/11 10:27:32;;;;;;;34.65;22.92;;;;;;;;;;10022629;28;20267;-72
2023/02/11 10:32:38;;;;;;;31.23;23.02;;;;;;;;;;10026180;28;20056;-72
2023/02/11 10:37:32;;;;;;;34.58;26.67;;;;;;;;;;10025222;28;20046;-72
2023/02/11 10:42:26;;;;;;;28.42;20.02;;;;;;;;;;10025961;28;20046;-72
2023/02/11 10:47:25;;;;;;;31.05;19.35;;;;;;;;;;10025100;28;20200;-72
2023/02/11 10:52:23;;;;;;;27.10;18.53;;;;;;;;;;10020950;28;20450;-72
2023/02/11 10:57:17;;;;;;;;;;;;;;;;;;10026059;28;20525;-72
2023/02/11 11:02:23;;;;;;;18.65;16.15;;;;;;;;;;10024627;28;19921;-72
2023/02/11 11:07:23;;;;;;;24.98;17.92;;;;;;;;;;10024854;28;20533;-72
2023/02/11 11:12:24;;;;;;;;;;;;;;;;;;10024829;28;20120;-72
2023/02/11 11:17:18;;;;;;;25.42;18.25;;;;;;;;;;10026168;28;20378;-72
2023/02/11 11:22:20;;;;;;;22.75;17.83;;;;;;;;;;10023242;28;20046;-72
2023/02/11 11:27:20;;;;;;;21.48;16.95;;;;;;;;;;10024226;28;20506;-71
2023/02/11 11:32:23;;;;;;;25.45;16.88;;;;;;;;;;10018527;28;20050;-71
2023/02/11 11:37:26;;;;;;;23.58;18.00;;;;;;;;;;10025331;28;20145;-71
2023/02/11 11:42:31;;;;;;;22.67;17.00;;;;;;;;;;10020804;28;20517;-72
2023/02/11 11:47:34;;;;;;;22.10;16.83;;;;;;;;;;10024514;28;20062;-71
2023/02/11 11:52:39;;;;;;;22.38;16.73;;;;;;;;;;10024963;28;20120;-71
2023/02/11 11:57:37;;;;;;;21.60;17.90;;;;;;;;;;10023942;28;20064;-72
2023/02/11 12:02:41;;;;;;;21.25;16.80;;;;;;;;;;10025663;28;20100;-70
2023/02/11 12:08:16;;;;;;;23.38;17.00;;;;;;;;;;10023548;28;20133;-68
2023/02/11 12:13:24;;;;;;;19.98;16.52;;;;;;;;;;9999104;28;20097;-72
2023/02/11 12:19:05;;;;;;;21.90;16.17;;;;;;;;;;10013266;28;20065;-78
2023/02/11 12:24:30;;;;;;;21.00;14.82;;;;;;;;;;9936884;28;20049;-78
2023/02/11 12:29:50;;;;;;;22.40;17.05;;;;;;;;;;10020841;28;20050;-77
2023/02/11 12:35:01;;;;;;;24.40;17.42;;;;;;;;;;10030528;28;20065;-78
2023/02/11 12:40:14;;;;;;;25.17;19.50;;;;;;;;;;10030003;28;20438;-78
2023/02/11 12:45:10;;;;;;;21.20;16.73;;;;;;;;;;10027272;28;20050;-77
2023/02/11 12:50:08;;;;;;;22.75;17.63;;;;;;;;;;10029828;28;20068;-70
2023/02/11 12:55:22;;;;;;;26.42;18.58;;;;;;;;;;10009258;28;20053;-72
2023/02/11 13:00:23;;;;;;;23.85;16.52;;;;;;;;;;10012655;28;20081;-73
2023/02/11 13:05:37;;;;;;;24.20;17.55;;;;;;;;;;10000823;28;20054;-71
2023/02/11 13:10:40;;;;;;;23.98;18.85;;;;;;;;;;9999235;28;20042;-73
2023/02/11 13:15:34;;;;;;;25.75;18.67;;;;;;;;;;10002118;28;20124;-72
2023/02/11 13:20:56;;;;;;;24.17;18.05;;;;;;;;;;10003202;28;20490;-73
2023/02/11 13:26:07;;;;;;;28.35;18.65;;;;;;;;;;10006231;28;20412;-72
2023/02/11 13:31:05;;;;;;;28.05;17.42;;;;;;;;;;10003783;28;20097;-74
2023/02/11 13:35:59;;;;;;;22.52;17.13;;;;;;;;;;9999056;28;20054;-74
2023/02/11 13:41:19;;;;;;;21.52;16.45;;;;;;;;;;10007860;28;20063;-75
2023/02/11 13:46:14;;;;;;;25.23;19.95;;;;;;;;;;10008801;28;20061;-72
2023/02/11 13:51:12;;;;;;;26.83;19.50;;;;;;;;;;10013211;28;20387;-80
2023/02/11 13:56:11;;;;;;;23.98;17.70;;;;;;;;;;10019709;28;20053;-74
2023/02/11 14:01:06;;;;;;;24.52;18.40;;;;;;;;;;10022786;28;20053;-75
2023/02/11 14:11:35;;;;;;;31.10;17.98;;;;;;;;;;10024112;28;20491;-74
2023/02/11 14:16:29;;;;;;;24.02;19.08;;;;;;;;;;10020335;28;20056;-74
2023/02/11 14:21:37;;;;;;;27.48;18.88;;;;;;;;;;10025587;28;20045;-74
2023/02/11 14:26:46;;;;;;;28.15;20.88;;;;;;;;;;10022857;28;20060;-76
2023/02/11 14:31:57;;;;;;;34.83;23.27;;;;;;;;;;10015734;28;20100;-78
2023/02/11 14:37:08;;;;;;;32.72;22.70;;;;;;;;;;10016078;28;20053;-72
2023/02/11 14:42:14;;;;;;;32.65;21.13;;;;;;;;;;10015664;28;20049;-72
2023/02/11 14:47:06;;;;;;;30.40;21.80;;;;;;;;;;10019433;28;20495;-72
2023/02/11 14:52:06;;;;;;;30.88;22.42;;;;;;;;;;10010235;28;20057;-75
2023/02/11 14:57:04;;;;;;;34.13;23.63;;;;;;;;;;10023820;28;20056;-75
2023/02/11 15:01:59;;;;;;;28.10;19.67;;;;;;;;;;10022435;28;20065;-75
2023/02/11 15:06:53;;;;;;;31.52;21.67;;;;;;;;;;10018560;28;20495;-77
2023/02/11 15:11:48;;;;;;;33.85;22.50;;;;;;;;;;10022065;28;20042;-75
2023/02/11 15:16:42;;;;;;;33.28;21.17;;;;;;;;;;10021107;28;20042;-71
2023/02/11 15:21:35;;;;;;;28.95;22.02;;;;;;;;;;10014856;28;20105;-72
2023/02/11 15:26:29;;;;;;;31.05;21.02;;;;;;;;;;9994457;28;20073;-80
2023/02/11 15:31:25;;;;;;;30.35;21.35;;;;;;;;;;10011750;28;20038;-79
2023/02/11 15:36:27;;;;;;;29.08;21.42;;;;;;;;;;10001686;28;20050;-79
2023/02/11 15:41:37;;;;;;;30.10;20.67;;;;;;;;;;10007992;28;20050;-77
2023/02/11 15:46:37;;;;;;;32.45;21.63;;;;;;;;;;9998461;28;20495;-74
2023/02/11 15:51:33;;;;;;;41.25;27.98;;;;;;;;;;10009755;28;20053;-74
2023/02/11 15:56:36;;;;;;;159.73;84.43;;;;;;;;;;9996915;28;20117;-76
2023/02/11 16:01:35;;;;;;;57.33;37.45;;;;;;;;;;10008640;28;20112;-71
2023/02/11 16:06:40;;;;;;;64.80;38.03;;;;;;;;;;10014941;28;20372;-73
2023/02/11 16:11:50;;;;;;;33.10;23.20;;;;;;;;;;10017316;28;20064;-72
2023/02/11 16:16:50;;;;;;;39.95;23.35;;;;;;;;;;10012026;28;20051;-74
2023/02/11 16:22:07;;;;;;;44.33;28.23;;;;;;;;;;10014604;28;20638;-72
2023/02/11 16:27:02;;;;;;;41.65;26.15;;;;;;;;;;10016231;28;20096;-75
2023/02/11 16:32:19;;;;;;;41.03;28.20;;;;;;;;;;10014865;28;20552;-74
2023/02/11 16:37:13;;;;;;;45.80;29.67;;;;;;;;;;10017808;28;20046;-74
2023/02/11 16:42:07;;;;;;;42.72;26.20;;;;;;;;;;10018327;28;20058;-73
2023/02/11 16:47:02;;;;;;;38.90;23.83;;;;;;;;;;10011539;28;20077;-76
2023/02/11 16:52:00;;;;;;;33.25;21.00;;;;;;;;;;10015743;28;20104;-70
2023/02/11 16:56:53;;;;;;;35.13;23.23;;;;;;;;;;10005643;28;20062;-72
2023/02/11 17:01:46;;;;;;;32.67;20.52;;;;;;;;;;10019556;28;20128;-71
2023/02/11 17:06:40;;;;;;;36.55;25.95;;;;;;;;;;10006915;28;20042;-71
2023/02/11 17:11:34;;;;;;;48.75;37.75;;;;;;;;;;10006968;28;20073;-70
2023/02/11 17:16:28;;;;;;;43.92;31.65;;;;;;;;;;10008606;28;20042;-72
2023/02/11 17:21:24;;;;;;;46.85;30.63;;;;;;;;;;10008437;28;20132;-70
2023/02/11 17:26:21;;;;;;;43.40;31.00;;;;;;;;;;10014186;28;20052;-71
2023/02/11 17:31:16;;;;;;;41.50;28.42;;;;;;;;;;10011536;28;20063;-71
2023/02/11 17:36:11;;;;;;;42.08;30.30;;;;;;;;;;10018869;28;20068;-71
2023/02/11 17:41:05;;;;;;;62.20;30.65;;;;;;;;;;10019251;28;20057;-71
2023/02/11 17:45:58;;;;;;;51.30;35.47;;;;;;;;;;10010096;28;20061;-71
2023/02/11 17:50:52;;;;;;;47.95;32.42;;;;;;;;;;10017321;28;20120;-74
2023/02/11 17:55:45;;;;;;;54.17;37.13;;;;;;;;;;10010922;28;20083;-74
2023/02/11 18:00:39;;;;;;;61.50;38.00;;;;;;;;;;10013494;28;20057;-77
2023/02/11 18:05:36;;;;;;;49.10;35.92;;;;;;;;;;10016767;28;20380;-70
2023/02/11 18:10:29;;;;;;;60.47;44.05;;;;;;;;;;10026050;28;20078;-70
2023/02/11 18:15:22;;;;;;;52.05;36.17;;;;;;;;;;10022889;28;20046;-70
2023/02/11 18:20:16;;;;;;;55.88;36.10;;;;;;;;;;10020182;28;20049;-70
2023/02/11 18:25:12;;;;;;;49.90;34.97;;;;;;;;;;10025279;28;20136;-71
2023/02/11 18:30:07;;;;;;;69.28;47.60;;;;;;;;;;10012409;28;20053;-70
2023/02/11 18:35:01;;;;;;;63.78;44.22;;;;;;;;;;10021342;28;20041;-69
2023/02/11 18:39:54;;;;;;;60.75;40.30;;;;;;;;;;10013259;28;20050;-69
2023/02/11 18:44:48;;;;;;;57.88;41.85;;;;;;;;;;10002923;28;20506;-69
2023/02/11 18:49:42;;;;;;;65.60;47.78;;;;;;;;;;10001225;28;20119;-70
2023/02/11 18:54:36;;;;;;;64.60;44.88;;;;;;;;;;10007046;28;20050;-70
2023/02/11 18:59:30;;;;;;;58.15;40.30;;;;;;;;;;9998541;28;20046;-69
2023/02/11 19:04:23;;;;;;;67.57;46.45;;;;;;;;;;9996906;28;20073;-69
2023/02/11 19:09:18;;;;;;;65.65;46.80;;;;;;;;;;10002514;28;20068;-70
2023/02/11 19:14:11;;;;;;;57.38;40.83;;;;;;;;;;10003166;28;20046;-69
2023/02/11 19:19:03;;;;;;;62.33;45.45;;;;;;;;;;10017137;28;20060;-68
2023/02/11 19:23:58;;;;;;;69.15;46.20;;;;;;;;;;10013341;28;20058;-69
2023/02/11 19:28:51;;;;;;;67.65;46.17;;;;;;;;;;10007955;28;20050;-69
2023/02/11 19:33:45;;;;;;;77.18;52.95;;;;;;;;;;10003786;28;20046;-69
2023/02/11 19:38:42;;;;;;;64.15;42.22;;;;;;;;;;10005530;28;20050;-67
2023/02/11 19:43:36;;;;;;;57.80;40.25;;;;;;;;;;10005032;28;20434;-69
2023/02/11 19:48:30;;;;;;;81.65;53.22;;;;;;;;;;10011913;28;20051;-68
2023/02/11 19:53:23;;;;;;;83.05;55.58;;;;;;;;;;10008810;28;20491;-68
2023/02/11 19:58:17;;;;;;;70.55;47.63;;;;;;;;;;10015930;28;20046;-68
2023/02/11 20:03:11;;;;;;;61.72;43.03;;;;;;;;;;10022770;28;20069;-70
2023/02/11 20:08:04;;;;;;;63.25;45.25;;;;;;;;;;10015323;28;20047;-68
2023/02/11 20:12:58;;;;;;;67.93;45.97;;;;;;;;;;10003469;28;20057;-69
2023/02/11 20:17:52;;;;;;;56.15;40.83;;;;;;;;;;10012035;28;20064;-69
2023/02/11 20:22:45;;;;;;;60.28;41.13;;;;;;;;;;10006354;28;20053;-68
2023/02/11 20:27:40;;;;;;;52.28;39.80;;;;;;;;;;10009580;28;20064;-69
2023/02/11 20:32:37;;;;;;;58.35;40.33;;;;;;;;;;10008805;28;20419;-69
2023/02/11 20:37:34;;;;;;;111.10;83.72;;;;;;;;;;10014140;28;20168;-69
2023/02/11 20:42:27;;;;;;;76.05;55.03;;;;;;;;;;10017598;28;20703;-68
2023/02/11 20:47:22;;;;;;;55.72;40.90;;;;;;;;;;10018310;28;20054;-72
2023/02/11 20:52:15;;;;;;;61.38;43.92;;;;;;;;;;10014812;28;20533;-70
2023/02/11 20:57:08;;;;;;;86.15;55.53;;;;;;;;;;9996094;28;20049;-71
2023/02/11 21:02:02;;;;;;;52.22;38.10;;;;;;;;;;9990348;28;20081;-72
2023/02/11 21:06:58;;;;;;;74.47;46.35;;;;;;;;;;9991650;28;20049;-71
2023/02/11 21:11:52;;;;;;;55.15;38.05;;;;;;;;;;9988297;28;20050;-69
2023/02/11 21:16:47;;;;;;;52.65;36.80;;;;;;;;;;9993878;28;20063;-58
2023/02/11 21:21:42;;;;;;;49.60;35.90;;;;;;;;;;9994672;28;20058;-60
2023/02/11 21:26:38;;;;;;;125.93;80.32;;;;;;;;;;9994204;28;20129;-59
2023/02/11 21:31:32;;;;;;;50.47;34.63;;;;;;;;;;10010834;28;20038;-59
2023/02/11 21:36:27;;;;;;;50.83;35.97;;;;;;;;;;10012841;28;20140;-59
2023/02/11 21:41:21;;;;;;;41.35;33.17;;;;;;;;;;10012190;28;20129;-59
2023/02/11 21:46:16;;;;;;;46.85;33.20;;;;;;;;;;10016421;28;20068;-60
2023/02/11 21:51:15;;;;;;;43.35;31.88;;;;;;;;;;10013572;28;20053;-59
2023/02/11 21:56:15;;;;;;;44.80;33.05;;;;;;;;;;10009157;28;20095;-59
2023/02/11 22:01:22;;;;;;;48.65;34.78;;;;;;;;;;10002784;28;20459;-58
2023/02/11 22:06:20;;;;;;;43.90;32.97;;;;;;;;;;10010393;28;20064;-60
2023/02/11 22:11:13;;;;;;;43.13;30.00;;;;;;;;;;10004146;28;20050;-60
2023/02/11 22:16:10;;;;;;;43.22;29.33;;;;;;;;;;10014114;28;20050;-60
2023/02/11 22:21:11;;;;;;;41.38;30.38;;;;;;;;;;10010592;28;20080;-59
2023/02/11 22:26:08;;;;;;;40.90;28.52;;;;;;;;;;10014202;28;20053;-60
2023/02/11 22:31:02;;;;;;;32.85;25.00;;;;;;;;;;10011027;28;20107;-59
2023/02/11 22:36:25;;;;;;;33.50;23.88;;;;;;;;;;10007591;28;20133;-59
2023/02/11 22:41:19;;;;;;;28.77;22.73;;;;;;;;;;10005608;28;20103;-58
2023/02/11 22:46:14;;;;;;;32.00;23.45;;;;;;;;;;10009887;28;20061;-59
2023/02/11 22:51:13;;;;;;;30.63;24.17;;;;;;;;;;10013349;28;20049;-60
2023/02/11 22:56:08;;;;;;;32.83;23.55;;;;;;;;;;10015594;28;20057;-59
2023/02/11 23:01:02;;;;;;;32.97;23.55;;;;;;;;;;10017897;28;20060;-58
2023/02/11 23:05:57;;;;;;;33.22;22.38;;;;;;;;;;9999482;28;20058;-59
2023/02/11 23:10:50;;;;;;;24.90;19.05;;;;;;;;;;10013363;28;20084;-59
2023/02/11 23:15:45;;;;;;;28.33;18.63;;;;;;;;;;10005575;28;20069;-59
2023/02/11 23:20:41;;;;;;;27.85;18.70;;;;;;;;;;10005637;28;20443;-59
2023/02/11 23:25:40;;;;;;;24.35;17.33;;;;;;;;;;10007737;28;20047;-59
2023/02/11 23:30:34;;;;;;;;;;;;;;;;;;10012319;28;20065;-59
2023/02/11 23:35:28;;;;;;;21.90;16.40;;;;;;;;;;10009340;28;19936;-58
2023/02/11 23:40:22;;;;;;;30.77;18.83;;;;;;;;;;10009689;28;20064;-59
2023/02/11 23:45:16;;;;;;;26.15;16.02;;;;;;;;;;10011064;28;20061;-59
2023/02/11 23:50:10;;;;;;;33.53;17.83;;;;;;;;;;10007408;28;20058;-59
2023/02/11 23:55:04;;;;;;;24.10;14.68;;;;;;;;;;10010901;28;20050;-59
2023/02/11 23:59:58;;;;;;;16.75;12.73;;;;;;;;;;10018798;28;20525;-59
